createdAt,value
2023-04-15T00:02:18.825Z,9.34
2023-04-15T00:04:47.379Z,9.40
2023-04-15T00:07:15.114Z,9.46
2023-04-15T00:09:44.565Z,9.51
2023-04-15T00:12:12.648Z,9.55
2023-04-15T00:14:40.404Z,9.58
2023-04-15T00:17:08.483Z,9.61
2023-04-15T00:19:36.741Z,9.61
2023-04-15T00:22:04.361Z,9.61
2023-04-15T00:24:32.690Z,9.61
2023-04-15T00:27:00.460Z,9.60
2023-04-15T00:29:28.505Z,9.60
2023-04-15T00:31:57.116Z,9.62
2023-04-15T00:34:24.796Z,9.65
2023-04-15T00:36:52.518Z,9.68
2023-04-15T00:39:20.863Z,9.71
2023-04-15T00:41:49.118Z,9.71
2023-04-15T00:44:18.805Z,9.72
2023-04-15T00:46:46.624Z,9.74
2023-04-15T00:49:14.492Z,9.74
2023-04-15T00:51:42.115Z,9.73
2023-04-15T00:54:09.937Z,9.71
2023-04-15T00:56:38.591Z,9.69
2023-04-15T00:59:07.052Z,9.64
2023-04-15T01:01:38.336Z,9.59
2023-04-15T01:04:07.082Z,9.57
2023-04-15T01:06:35.200Z,9.55
2023-04-15T01:09:03.450Z,9.51
2023-04-15T01:11:34.305Z,9.48
2023-04-15T01:14:02.727Z,9.44
2023-04-15T01:16:31.584Z,9.40
2023-04-15T01:19:00.199Z,9.37
2023-04-15T01:21:28.289Z,9.37
2023-04-15T01:23:57.900Z,9.37
2023-04-15T01:26:25.793Z,9.38
2023-04-15T01:28:53.488Z,9.40
2023-04-15T01:31:22.139Z,9.40
2023-04-15T01:33:50.020Z,9.40
2023-04-15T01:36:17.715Z,9.41
2023-04-15T01:38:45.717Z,9.39
2023-04-15T01:41:15.171Z,9.38
2023-04-15T01:43:42.889Z,9.36
2023-04-15T01:46:11.087Z,9.34
2023-04-15T01:48:38.803Z,9.33
2023-04-15T01:51:06.490Z,9.33
2023-04-15T01:53:34.225Z,9.35
2023-04-15T01:56:03.450Z,9.36
2023-04-15T01:58:31.531Z,9.37
2023-04-15T02:00:59.216Z,9.37
2023-04-15T02:03:27.629Z,9.38
2023-04-15T02:05:55.472Z,9.38
2023-04-15T02:08:23.195Z,9.39
2023-04-15T02:10:51.204Z,9.39
2023-04-15T02:13:19.262Z,9.41
2023-04-15T02:15:48.050Z,9.42
2023-04-15T02:18:16.201Z,9.43
2023-04-15T02:20:45.453Z,9.44
2023-04-15T02:23:13.259Z,9.43
2023-04-15T02:25:41.018Z,9.44
2023-04-15T02:28:08.753Z,9.45
2023-04-15T02:30:36.503Z,9.45
2023-04-15T02:33:04.263Z,9.48
2023-04-15T02:35:32.113Z,9.50
2023-04-15T02:38:00.910Z,9.52
2023-04-15T02:40:28.983Z,9.53
2023-04-15T02:42:56.633Z,9.55
2023-04-15T02:45:27.470Z,9.56
2023-04-15T02:47:55.783Z,9.57
2023-04-15T02:50:24.233Z,9.58
2023-04-15T02:52:52.217Z,9.60
2023-04-15T02:55:20.119Z,9.61
2023-04-15T02:57:47.851Z,9.64
2023-04-15T03:00:16.117Z,9.65
2023-04-15T03:02:46.761Z,9.68
2023-04-15T03:05:14.860Z,9.70
2023-04-15T03:07:50.280Z,9.70
2023-04-15T03:10:18.456Z,9.73
2023-04-15T03:12:47.235Z,9.75
2023-04-15T03:15:18.539Z,9.75
2023-04-15T03:17:49.642Z,9.77
2023-04-15T03:20:17.578Z,9.77
2023-04-15T03:22:45.446Z,9.78
2023-04-15T03:25:13.221Z,9.77
2023-04-15T03:27:41.695Z,9.77
2023-04-15T03:30:09.993Z,9.75
2023-04-15T03:32:38.930Z,9.75
2023-04-15T03:35:08.194Z,9.76
2023-04-15T03:37:35.904Z,9.78
2023-04-15T03:40:03.618Z,9.79
2023-04-15T03:42:31.668Z,9.78
2023-04-15T03:44:59.384Z,9.77
2023-04-15T03:47:27.048Z,9.78
2023-04-15T03:49:54.711Z,9.76
2023-04-15T03:52:22.384Z,9.75
2023-04-15T03:54:50.021Z,9.74
2023-04-15T03:57:17.726Z,9.74
2023-04-15T03:59:45.364Z,9.74
2023-04-15T04:02:13.224Z,9.75
2023-04-15T04:04:41.081Z,9.75
2023-04-15T04:07:09.142Z,9.77
2023-04-15T04:09:39.016Z,9.79
2023-04-15T04:12:06.690Z,9.77
2023-04-15T04:14:34.427Z,9.75
2023-04-15T04:17:02.281Z,9.71
2023-04-15T04:19:30.221Z,9.67
2023-04-15T04:21:57.961Z,9.63
2023-04-15T04:24:26.353Z,9.63
2023-04-15T04:26:54.045Z,9.63
2023-04-15T04:29:21.693Z,9.63
2023-04-15T04:31:49.475Z,9.64
2023-04-15T04:34:17.429Z,9.64
2023-04-15T04:36:45.275Z,9.65
2023-04-15T04:39:12.954Z,9.62
2023-04-15T04:41:41.024Z,9.59
2023-04-15T04:44:08.728Z,9.55
2023-04-15T04:46:36.434Z,9.53
2023-04-15T04:49:04.130Z,9.53
2023-04-15T04:51:32.070Z,9.50
2023-04-15T04:54:01.271Z,9.48
2023-04-15T04:56:30.374Z,9.47
2023-04-15T04:58:58.053Z,9.43
2023-04-15T05:01:27.506Z,9.39
2023-04-15T05:03:55.415Z,9.37
2023-04-15T05:06:23.491Z,9.34
2023-04-15T05:08:51.406Z,9.31
2023-04-15T05:11:19.105Z,9.27
2023-04-15T05:13:46.832Z,9.23
2023-04-15T05:16:14.542Z,9.21
2023-04-15T05:18:42.356Z,9.18
2023-04-15T05:21:10.432Z,9.16
2023-04-15T05:23:38.119Z,9.17
2023-04-15T05:26:05.791Z,9.18
2023-04-15T05:28:33.548Z,9.18
2023-04-15T05:31:01.374Z,9.20
2023-04-15T05:33:29.091Z,9.23
2023-04-15T05:35:56.760Z,9.27
2023-04-15T05:38:24.503Z,9.30
2023-04-15T05:40:52.349Z,9.31
2023-04-15T05:43:20.588Z,9.31
2023-04-15T05:45:48.427Z,9.27
2023-04-15T05:48:16.241Z,9.23
2023-04-15T05:50:43.945Z,9.21
2023-04-15T05:53:11.649Z,9.19
2023-04-15T05:55:39.335Z,9.18
2023-04-15T05:58:07.075Z,9.19
2023-04-15T06:00:34.720Z,9.20
2023-04-15T06:03:02.469Z,9.22
2023-04-15T06:05:30.221Z,9.25
2023-04-15T06:07:57.932Z,9.26
2023-04-15T06:10:25.952Z,9.26
2023-04-15T06:12:53.863Z,9.24
2023-04-15T06:15:21.570Z,9.22
2023-04-15T06:17:49.254Z,9.21
2023-04-15T06:20:16.892Z,9.19
2023-04-15T06:22:44.559Z,9.18
2023-04-15T06:25:12.300Z,9.17
2023-04-15T06:27:40.572Z,9.17
2023-04-15T06:30:08.948Z,9.17
2023-04-15T06:32:36.665Z,9.17
2023-04-15T06:35:04.903Z,9.15
2023-04-15T06:37:32.725Z,9.14
2023-04-15T06:40:00.439Z,9.13
2023-04-15T06:42:28.208Z,9.12
2023-04-15T06:44:56.167Z,9.12
2023-04-15T06:47:23.847Z,9.11
2023-04-15T06:49:51.922Z,9.10
2023-04-15T06:52:19.880Z,9.13
2023-04-15T06:54:47.521Z,9.17
2023-04-15T06:57:15.269Z,9.22
2023-04-15T06:59:43.441Z,9.23
2023-04-15T07:02:12.484Z,9.24
2023-04-15T07:04:40.680Z,9.23
2023-04-15T07:07:09.438Z,9.22
2023-04-15T07:09:37.302Z,9.22
2023-04-15T07:12:05.207Z,9.24
2023-04-15T07:14:32.951Z,9.25
2023-04-15T07:17:00.637Z,9.24
2023-04-15T07:19:28.387Z,9.24
2023-04-15T07:21:56.529Z,9.22
2023-04-15T07:24:26.681Z,9.23
2023-04-15T07:26:59.464Z,9.26
2023-04-15T07:29:28.574Z,9.31
2023-04-15T07:31:57.151Z,9.34
2023-04-15T07:34:25.089Z,9.41
2023-04-15T07:36:52.758Z,9.47
2023-04-15T07:39:20.379Z,9.53
2023-04-15T07:41:49.046Z,9.62
2023-04-15T07:44:16.757Z,9.69
2023-04-15T07:46:44.438Z,9.71
2023-04-15T07:49:13.331Z,9.73
2023-04-15T07:51:40.987Z,9.76
2023-04-15T07:54:08.928Z,9.83
2023-04-15T07:56:36.635Z,9.86
2023-04-15T07:59:06.041Z,9.88
2023-04-15T08:01:33.732Z,9.92
2023-04-15T08:04:02.258Z,9.95
2023-04-15T08:06:30.255Z,9.98
2023-04-15T08:08:58.088Z,10.04
2023-04-15T08:11:26.196Z,10.09
2023-04-15T08:13:53.907Z,10.16
2023-04-15T08:16:25.388Z,10.27
2023-04-15T08:18:55.811Z,10.39
2023-04-15T08:21:23.831Z,10.57
2023-04-15T08:23:52.409Z,10.76
2023-04-15T08:26:21.177Z,10.91
2023-04-15T08:28:49.241Z,11.04
2023-04-15T08:31:17.922Z,11.16
2023-04-15T08:33:46.216Z,11.31
2023-04-15T08:36:13.947Z,11.43
2023-04-15T08:38:41.834Z,11.54
2023-04-15T08:41:21.781Z,11.63
2023-04-15T08:43:53.669Z,11.65
2023-04-15T08:46:21.840Z,11.64
2023-04-15T08:48:49.759Z,11.62
2023-04-15T08:51:18.286Z,11.59
2023-04-15T08:53:47.460Z,11.57
2023-04-15T08:56:18.720Z,11.55
2023-04-15T08:58:47.000Z,11.49
2023-04-15T09:01:15.112Z,11.43
2023-04-15T09:03:43.059Z,11.36
2023-04-15T09:06:11.587Z,11.29
2023-04-15T09:08:39.270Z,11.22
2023-04-15T09:11:07.036Z,11.16
2023-04-15T09:13:34.842Z,11.11
2023-04-15T09:16:04.177Z,11.08
2023-04-15T09:18:36.308Z,11.03
2023-04-15T09:21:05.913Z,10.94
2023-04-15T09:23:34.103Z,10.88
2023-04-15T09:26:02.580Z,10.82
2023-04-15T09:28:30.841Z,10.78
2023-04-15T09:30:59.351Z,10.78
2023-04-15T09:33:28.014Z,10.82
2023-04-15T09:36:00.802Z,10.82
2023-04-15T09:38:28.485Z,10.80
2023-04-15T09:40:56.447Z,10.79
2023-04-15T09:43:38.207Z,10.80
2023-04-15T09:46:06.024Z,10.80
2023-04-15T09:48:33.744Z,10.79
2023-04-15T09:51:02.165Z,10.76
2023-04-15T09:53:32.863Z,10.74
2023-04-15T09:56:03.396Z,10.73
2023-04-15T09:58:33.506Z,10.68
2023-04-15T10:01:03.143Z,10.66
2023-04-15T10:03:36.809Z,10.65
2023-04-15T10:06:05.712Z,10.62
2023-04-15T10:08:34.907Z,10.63
2023-04-15T10:11:03.565Z,10.63
2023-04-15T10:13:37.117Z,10.64
2023-04-15T10:16:12.239Z,10.61
2023-04-15T10:18:43.166Z,10.59
2023-04-15T10:21:11.148Z,10.58
2023-04-15T10:23:39.525Z,10.53
2023-04-15T10:26:07.499Z,10.49
2023-04-15T10:28:35.176Z,10.46
2023-04-15T10:31:04.797Z,10.44
2023-04-15T10:33:33.815Z,10.44
2023-04-15T10:36:01.736Z,10.44
2023-04-15T10:38:33.817Z,10.44
2023-04-15T10:41:19.552Z,10.49
2023-04-15T10:43:57.783Z,10.54
2023-04-15T10:46:41.627Z,10.57
2023-04-15T10:49:14.411Z,10.61
2023-04-15T10:51:51.629Z,10.66
2023-04-15T10:54:25.762Z,10.70
2023-04-15T10:57:01.572Z,10.70
2023-04-15T10:59:33.190Z,10.68
2023-04-15T11:02:02.102Z,10.68
2023-04-15T11:04:46.001Z,10.69
2023-04-15T11:07:14.376Z,10.68
2023-04-15T11:09:42.015Z,10.69
2023-04-15T11:12:10.432Z,10.68
2023-04-15T11:14:43.323Z,10.67
2023-04-15T11:17:11.404Z,10.64
2023-04-15T11:19:39.335Z,10.60
2023-04-15T11:22:10.895Z,10.55
2023-04-15T11:24:47.349Z,10.55
2023-04-15T11:27:22.000Z,10.57
2023-04-15T11:29:49.960Z,10.58
2023-04-15T11:32:17.894Z,10.59
2023-04-15T11:34:46.592Z,10.56
2023-04-15T11:37:14.273Z,10.55
2023-04-15T11:39:41.987Z,10.52
2023-04-15T11:42:25.677Z,10.49
2023-04-15T11:45:06.466Z,10.44
2023-04-15T11:47:34.125Z,10.41
2023-04-15T11:50:17.872Z,10.39
2023-04-15T11:53:01.222Z,10.35
2023-04-15T11:55:29.354Z,10.32
2023-04-15T11:58:15.111Z,10.33
2023-04-15T12:01:02.878Z,10.35
2023-04-15T12:03:33.051Z,10.36
2023-04-15T12:06:08.270Z,10.33
2023-04-15T12:08:52.732Z,10.31
2023-04-15T12:11:21.494Z,10.31
2023-04-15T12:13:50.378Z,10.33
2023-04-15T12:16:19.297Z,10.37
2023-04-15T12:18:48.409Z,10.40
2023-04-15T12:21:16.435Z,10.45
2023-04-15T12:23:53.114Z,10.51
2023-04-15T12:26:37.068Z,10.53
2023-04-15T12:29:06.900Z,10.58
2023-04-15T12:31:35.903Z,10.58
2023-04-15T12:34:07.525Z,10.57
2023-04-15T12:36:38.166Z,10.55
2023-04-15T12:39:06.313Z,10.54
2023-04-15T12:41:34.148Z,10.53
2023-04-15T12:44:02.111Z,10.50
2023-04-15T12:46:29.967Z,10.50
2023-04-15T12:48:57.594Z,10.52
2023-04-15T12:51:27.236Z,10.52
2023-04-15T12:53:54.926Z,10.53
2023-04-15T12:56:23.890Z,10.55
2023-04-15T12:58:51.848Z,10.61
2023-04-15T13:01:19.949Z,10.69
2023-04-15T13:03:48.298Z,10.77
2023-04-15T13:06:16.567Z,10.83
2023-04-15T13:08:57.311Z,10.87
2023-04-15T13:11:26.027Z,10.93
2023-04-15T13:13:53.813Z,10.95
2023-04-15T13:16:21.927Z,10.94
2023-04-15T13:18:49.918Z,10.93
2023-04-15T13:21:17.799Z,11.01
2023-04-15T13:23:45.501Z,11.10
2023-04-15T13:26:13.242Z,11.18
2023-04-15T13:28:41.123Z,11.22
2023-04-15T13:31:08.876Z,11.27
2023-04-15T13:33:37.010Z,11.27
2023-04-15T13:36:04.775Z,11.27
2023-04-15T13:38:32.656Z,11.28
2023-04-15T13:41:00.462Z,11.30
2023-04-15T13:43:28.429Z,11.29
2023-04-15T13:45:56.215Z,11.23
2023-04-15T13:48:23.891Z,11.14
2023-04-15T13:50:51.609Z,11.07
2023-04-15T13:53:19.296Z,11.00
2023-04-15T13:55:47.145Z,10.92
2023-04-15T13:58:14.928Z,10.86
2023-04-15T14:00:42.601Z,10.79
2023-04-15T14:03:10.413Z,10.72
2023-04-15T14:05:38.360Z,10.68
2023-04-15T14:08:06.053Z,10.66
2023-04-15T14:10:33.738Z,10.62
2023-04-15T14:13:01.404Z,10.60
2023-04-15T14:15:29.140Z,10.62
2023-04-15T14:17:57.432Z,10.66
2023-04-15T14:20:25.247Z,10.66
2023-04-15T14:22:53.740Z,10.68
2023-04-15T14:25:32.851Z,10.71
2023-04-15T14:28:02.186Z,10.71
2023-04-15T14:30:30.194Z,10.71
2023-04-15T14:32:57.959Z,10.69
2023-04-15T14:35:26.787Z,10.69
2023-04-15T14:37:55.218Z,10.66
2023-04-15T14:40:23.004Z,10.63
2023-04-15T14:42:50.743Z,10.63
2023-04-15T14:45:18.527Z,10.68
2023-04-15T14:47:47.114Z,10.74
2023-04-15T14:50:15.024Z,10.81
2023-04-15T14:52:42.761Z,10.86
2023-04-15T14:55:12.024Z,10.91
2023-04-15T14:57:40.849Z,10.92
2023-04-15T15:00:10.327Z,10.91
2023-04-15T15:02:40.119Z,10.89
2023-04-15T15:05:09.776Z,10.88
2023-04-15T15:07:38.766Z,10.90
2023-04-15T15:10:07.363Z,10.92
2023-04-15T15:12:35.068Z,10.90
2023-04-15T15:15:09.246Z,10.87
2023-04-15T15:17:43.837Z,10.85
2023-04-15T15:20:11.716Z,10.85
2023-04-15T15:22:39.424Z,10.84
2023-04-15T15:25:07.190Z,10.81
2023-04-15T15:27:37.096Z,10.75
2023-04-15T15:30:06.879Z,10.69
2023-04-15T15:32:34.890Z,10.62
2023-04-15T15:35:02.711Z,10.54
2023-04-15T15:37:30.763Z,10.47
2023-04-15T15:39:58.927Z,10.41
2023-04-15T15:42:26.682Z,10.37
2023-04-15T15:44:54.618Z,10.34
2023-04-15T15:47:22.681Z,10.33
2023-04-15T15:49:50.472Z,10.33
2023-04-15T15:52:18.235Z,10.31
2023-04-15T15:54:46.102Z,10.26
2023-04-15T15:57:13.797Z,10.23
2023-04-15T15:59:43.589Z,10.17
2023-04-15T16:02:12.293Z,10.11
2023-04-15T16:04:40.573Z,10.07
2023-04-15T16:07:09.224Z,10.05
2023-04-15T16:09:37.062Z,10.02
2023-04-15T16:12:04.749Z,9.98
2023-04-15T16:14:32.503Z,9.93
2023-04-15T16:17:00.121Z,9.89
2023-04-15T16:19:28.021Z,9.87
2023-04-15T16:21:56.283Z,9.85
2023-04-15T16:24:24.026Z,9.80
2023-04-15T16:26:51.786Z,9.74
2023-04-15T16:29:19.447Z,9.71
2023-04-15T16:31:47.435Z,9.69
2023-04-15T16:34:16.065Z,9.69
2023-04-15T16:36:43.993Z,9.68
2023-04-15T16:39:11.800Z,9.69
2023-04-15T16:41:39.659Z,9.68
2023-04-15T16:44:08.845Z,9.65
2023-04-15T16:46:38.118Z,9.63
2023-04-15T16:49:06.968Z,9.59
2023-04-15T16:51:34.718Z,9.54
2023-04-15T16:54:02.436Z,9.48
2023-04-15T16:56:30.360Z,9.43
2023-04-15T16:58:58.038Z,9.41
2023-04-15T17:01:26.313Z,9.38
2023-04-15T17:03:56.184Z,9.38
2023-04-15T17:06:24.274Z,9.37
2023-04-15T17:08:52.068Z,9.36
2023-04-15T17:11:19.787Z,9.36
2023-04-15T17:13:47.968Z,9.36
2023-04-15T17:16:15.889Z,9.34
2023-04-15T17:18:44.018Z,9.32
2023-04-15T17:21:11.679Z,9.29
2023-04-15T17:23:39.364Z,9.25
2023-04-15T17:26:06.997Z,9.22
2023-04-15T17:28:34.722Z,9.21
2023-04-15T17:31:03.489Z,9.19
2023-04-15T17:33:57.675Z,9.16
2023-04-15T17:36:19.034Z,9.15
2023-04-15T17:38:46.880Z,9.14
2023-04-15T17:41:14.803Z,9.14
2023-04-15T17:43:42.868Z,9.12
2023-04-15T17:46:12.046Z,9.11
2023-04-15T17:48:41.090Z,9.11
2023-04-15T17:51:08.805Z,9.09
2023-04-15T17:53:36.496Z,9.05
2023-04-15T17:56:04.544Z,9.03
2023-04-15T17:58:32.262Z,9.02
2023-04-15T18:00:59.925Z,8.99
2023-04-15T18:03:28.377Z,9.00
2023-04-15T18:05:56.295Z,9.00
2023-04-15T18:08:23.969Z,8.97
2023-04-15T18:10:51.977Z,8.96
2023-04-15T18:13:19.713Z,8.94
2023-04-15T18:15:48.553Z,8.92
2023-04-15T18:18:16.314Z,8.88
2023-04-15T18:20:44.263Z,8.83
2023-04-15T18:23:14.499Z,8.82
2023-04-15T18:25:43.766Z,8.80
2023-04-15T18:28:12.252Z,8.78
2023-04-15T18:30:40.340Z,8.74
2023-04-15T18:33:08.406Z,8.73
2023-04-15T18:35:36.635Z,8.72
2023-04-15T18:38:05.352Z,8.71
2023-04-15T18:40:33.126Z,8.69
2023-04-15T18:43:01.239Z,8.66
2023-04-15T18:45:29.906Z,8.64
2023-04-15T18:47:58.178Z,8.60
2023-04-15T18:50:26.221Z,8.58
2023-04-15T18:52:54.060Z,8.56
2023-04-15T18:55:22.769Z,8.52
2023-04-15T18:57:51.235Z,8.51
2023-04-15T19:00:19.252Z,8.48
2023-04-15T19:02:47.214Z,8.48
2023-04-15T19:05:15.005Z,8.48
2023-04-15T19:07:43.011Z,8.50
2023-04-15T19:10:10.807Z,8.51
2023-04-15T19:12:39.950Z,8.51
2023-04-15T19:15:08.060Z,8.49
2023-04-15T19:17:36.129Z,8.47
2023-04-15T19:20:04.608Z,8.45
2023-04-15T19:22:33.226Z,8.43
2023-04-15T19:25:01.187Z,8.40
2023-04-15T19:27:29.227Z,8.39
2023-04-15T19:29:56.910Z,8.38
2023-04-15T19:32:24.760Z,8.37
2023-04-15T19:34:52.777Z,8.37
2023-04-15T19:37:20.858Z,8.36
2023-04-15T19:39:48.596Z,8.35
2023-04-15T19:42:17.150Z,8.36
2023-04-15T19:44:45.379Z,8.36
2023-04-15T19:47:13.080Z,8.33
2023-04-15T19:49:40.915Z,8.30
2023-04-15T19:52:08.669Z,8.28
2023-04-15T19:54:36.398Z,8.28
2023-04-15T19:57:04.115Z,8.27
2023-04-15T19:59:31.872Z,8.28
2023-04-15T20:01:59.624Z,8.29
2023-04-15T20:04:27.854Z,8.28
2023-04-15T20:06:56.120Z,8.27
2023-04-15T20:09:23.780Z,8.27
2023-04-15T20:12:06.187Z,8.26
2023-04-15T20:14:39.103Z,8.24
2023-04-15T20:17:06.802Z,8.23
2023-04-15T20:19:34.513Z,8.23
2023-04-15T20:22:02.247Z,8.24
2023-04-15T20:24:30.005Z,8.24
2023-04-15T20:26:57.650Z,8.25
2023-04-15T20:29:25.359Z,8.26
2023-04-15T20:31:53.105Z,8.25
2023-04-15T20:34:20.983Z,8.27
2023-04-15T20:36:48.610Z,8.27
2023-04-15T20:39:17.051Z,8.27
2023-04-15T20:41:44.800Z,8.25
2023-04-15T20:44:12.459Z,8.23
2023-04-15T20:46:39.980Z,8.20
2023-04-15T20:49:07.891Z,8.17
2023-04-15T20:51:37.619Z,8.16
2023-04-15T20:54:06.200Z,8.14
2023-04-15T20:56:33.895Z,8.13
2023-04-15T20:59:01.615Z,8.15
2023-04-15T21:01:29.495Z,8.16
2023-04-15T21:03:58.303Z,8.16
2023-04-15T21:06:27.074Z,8.17
2023-04-15T21:08:54.786Z,8.18
2023-04-15T21:11:43.212Z,8.17
2023-04-15T21:14:10.315Z,8.14
2023-04-15T21:16:38.106Z,8.13
2023-04-15T21:19:06.151Z,8.12
2023-04-15T21:21:33.994Z,8.11
2023-04-15T21:24:01.905Z,8.14
2023-04-15T21:26:29.582Z,8.17
2023-04-15T21:28:57.287Z,8.17
2023-04-15T21:31:25.318Z,8.21
2023-04-15T21:33:53.052Z,8.22
2023-04-15T21:36:20.762Z,8.24
2023-04-15T21:38:48.641Z,8.26
2023-04-15T21:41:16.371Z,8.27
2023-04-15T21:43:44.114Z,8.28
2023-04-15T21:46:23.537Z,8.29
2023-04-15T21:48:53.569Z,8.29
2023-04-15T21:51:21.656Z,8.29
2023-04-15T21:53:49.315Z,8.26
2023-04-15T21:56:16.970Z,8.24
2023-04-15T21:58:44.599Z,8.25
2023-04-15T22:01:12.278Z,8.25
2023-04-15T22:03:40.548Z,8.25
2023-04-15T22:06:08.510Z,8.25
2023-04-15T22:08:48.352Z,8.26
2023-04-15T22:11:26.950Z,8.30
2023-04-15T22:13:56.558Z,8.35
2023-04-15T22:16:25.088Z,8.35
2023-04-15T22:18:53.401Z,8.36
2023-04-15T22:21:21.112Z,8.34
2023-04-15T22:23:48.858Z,8.30
2023-04-15T22:26:16.563Z,8.27
2023-04-15T22:28:45.261Z,8.25
2023-04-15T22:31:14.785Z,8.22
2023-04-15T22:33:42.668Z,8.22
2023-04-15T22:36:10.613Z,8.22
2023-04-15T22:38:38.259Z,8.23
2023-04-15T22:41:06.551Z,8.25
2023-04-15T22:43:34.255Z,8.26
2023-04-15T22:46:01.953Z,8.29
2023-04-15T22:48:29.807Z,8.29
2023-04-15T22:50:57.528Z,8.30
2023-04-15T22:53:25.235Z,8.33
2023-04-15T22:55:53.954Z,8.31
2023-04-15T22:58:21.706Z,8.29
2023-04-15T23:00:50.219Z,8.26
2023-04-15T23:03:18.030Z,8.24
2023-04-15T23:05:46.060Z,8.22
2023-04-15T23:08:13.718Z,8.20
2023-04-15T23:10:41.431Z,8.17
2023-04-15T23:13:09.108Z,8.14
2023-04-15T23:15:36.916Z,8.12
2023-04-15T23:18:04.750Z,8.10
2023-04-15T23:20:32.820Z,8.10
2023-04-15T23:23:00.571Z,8.10
2023-04-15T23:25:28.330Z,8.11
2023-04-15T23:27:55.943Z,8.13
2023-04-15T23:30:23.796Z,8.11
2023-04-15T23:32:51.577Z,8.14
2023-04-15T23:35:19.543Z,8.17
2023-04-15T23:37:47.261Z,8.17
2023-04-15T23:40:15.687Z,8.15
2023-04-15T23:42:43.469Z,8.11
2023-04-15T23:45:11.712Z,8.11
2023-04-15T23:47:39.696Z,8.10
2023-04-15T23:50:08.327Z,8.06
2023-04-15T23:52:36.359Z,8.00
2023-04-15T23:55:04.331Z,7.97
2023-04-15T23:57:32.032Z,7.97
